Ana Sayfa
METAR-TAF:

METAR-TAF

Havaalanları :

Bacău, Romanya

Enlem: 46-35N, Boylam: 026-58E, yükseklik: 184 m

Güncel hava durumu gözlemi

Rapor saat 12:30 UTC de 28 dakika önce yapıldı.
Rüzgar kuzeydoğudan 5 kt, kuzey ve doğu arasında değişken
Sıcaklık 29°C
Nem 52%
Basınç 1016 hPa
Görüş mesafesi 10 km veya daha fazla
4500 ft yükseklikte az bulutlu, Yükselen kümülüs.

METAR: LRBC 201230Z 05005KT 010V100 9999 FEW045TCU 29/18 Q1016

Saat: 15:58 (12:58 UTC)

Tahmin

Rapor saat 11:00 UTC de 1 saat ve 58 dakika önce yapıldı.
Ayın 20'si saat 12 UTC'den ayın 20'si saat 21 UTC'ye kadar geçerli Tahmin
Rüzgar kuzey/kuzeybatıdan 8 kt
Görüş mesafesi 10 km veya daha fazla
4500 ft yükseklikte parçalı bulutlu
Geçici
ayın 20'si saat 13 UTC'den ayın 20'si saat 16 UTC'ye kadar
4000 ft yükseklikte parçalı bulutlu, Kümülonimbus.

TAF: LRBC 201100Z 2012/2021 34008KT 9999 SCT045 TEMPO 2013/2016 SCT040CB

4.000'den fazla havaalanı için hava durumu gözlemleri ve tahminleri (METAR ve TAF raporları).

Kullanılabilir istasyonlar harita üzerinde sarı ve kırmızı noktalarla gösterilir.

İstasyonun adını görmek için fareyi noktanın üzerinde gezdirin.

Sonrasında hava gözlem ve tahminlerini görmek için tıklayın.

Haritayı değiştirmek için: yaklaştırmak için siyah artı işaretli yeşil düğmeye ve uzaklaştırmak için de eksi işaretli düğmeye hızla tıklayın; bitişik haritalar için yeşil okları kullanın.


METAR-TAF: